Time;durP1;ratioP1;P1;durP2;ratioP2;P2;SDS_P1;SDS_P2;PMS_P1;PMS_P2;Temp;Humidity;BMP_temperature;BMP_pressure;BME280_temperature;BME280_humidity;BME280_pressure;Samples;Min_cycle;Max_cycle;Signal;HPM_P1;HPM_P2
2022/02/27 00:00:40;;;;;;;3.50;1.30;;;;;;;12.52;67.78;101619.47;2061715;28;20042;-78
2022/02/27 00:02:01;;;;;;;6.35;1.50;;;;;;;12.51;67.84;101627.38;2060394;28;20046;-78
2022/02/27 00:03:24;;;;;;;3.53;1.55;;;;;;;12.49;67.80;101622.03;2077325;28;20153;-78
2022/02/27 00:04:45;;;;;;;4.40;1.55;;;;;;;12.49;67.70;101616.75;2062316;28;20100;-78
2022/02/27 00:06:08;;;;;;;4.38;1.80;;;;;;;12.50;67.53;101622.94;2069428;28;20050;-78
2022/02/27 00:07:31;;;;;;;4.65;1.70;;;;;;;12.47;67.53;101621.09;2058379;28;20055;-78
2022/02/27 00:08:53;;;;;;;4.10;1.77;;;;;;;12.37;67.47;101619.13;2063342;28;20407;-78
2022/02/27 00:10:15;;;;;;;5.05;2.30;;;;;;;12.25;67.67;101611.81;2075102;28;20615;-78
2022/02/27 00:11:37;;;;;;;10.50;4.38;;;;;;;12.15;67.83;101612.47;2066428;28;20051;-77
2022/02/27 00:12:58;;;;;;;10.05;4.10;;;;;;;12.05;68.15;101613.13;2069447;28;20050;-78
2022/02/27 00:14:21;;;;;;;12.65;5.30;;;;;;;11.98;68.35;101624.41;2061185;28;20057;-78
2022/02/27 00:15:43;;;;;;;12.48;4.47;;;;;;;11.86;68.64;101614.44;2061255;28;20126;-78
2022/02/27 00:17:07;;;;;;;7.75;3.25;;;;;;;11.76;68.87;101615.06;2062582;28;20465;-78
2022/02/27 00:18:29;;;;;;;7.70;3.28;;;;;;;11.67;68.94;101620.09;2062521;28;20062;-78
2022/02/27 00:19:50;;;;;;;8.00;3.40;;;;;;;11.62;69.13;101616.44;2061509;28;20401;-78
2022/02/27 00:21:13;;;;;;;9.43;4.03;;;;;;;11.60;69.22;101623.47;2055139;28;20093;-77
2022/02/27 00:22:36;;;;;;;5.55;2.53;;;;;;;11.58;69.11;101625.16;2057426;28;20059;-78
2022/02/27 00:23:59;;;;;;;7.70;2.58;;;;;;;11.55;69.19;101625.97;2074506;28;20042;-78
2022/02/27 00:25:22;;;;;;;20.70;7.13;;;;;;;11.56;68.97;101627.75;2061360;28;20455;-79
2022/02/27 00:26:44;;;;;;;43.85;18.38;;;;;;;11.57;68.80;101626.00;2062847;28;20514;-78
2022/02/27 00:28:08;;;;;;;29.17;13.52;;;;;;;11.53;68.87;101632.97;2054946;28;20059;-78
2022/02/27 00:29:29;;;;;;;22.48;11.23;;;;;;;11.56;68.91;101626.84;2068518;28;20046;-78
2022/02/27 00:30:54;;;;;;;28.65;11.40;;;;;;;11.62;68.81;101621.72;2055339;28;20058;-78
2022/02/27 00:32:16;;;;;;;29.67;11.77;;;;;;;11.69;68.51;101628.94;2071021;28;20049;-78
2022/02/27 00:33:39;;;;;;;21.60;8.02;;;;;;;11.72;68.36;101623.75;2070813;28;20060;-78
2022/02/27 00:35:02;;;;;;;15.77;5.57;;;;;;;11.76;68.33;101616.81;2063386;28;20112;-78
2022/02/27 00:36:24;;;;;;;6.90;2.42;;;;;;;11.76;68.11;101614.16;2054802;28;20137;-78
2022/02/27 00:37:48;;;;;;;4.00;2.20;;;;;;;11.76;68.06;101609.78;2055067;28;20279;-78
2022/02/27 00:39:10;;;;;;;4.80;2.20;;;;;;;11.72;68.00;101607.88;2055079;28;20066;-78
2022/02/27 00:40:37;;;;;;;4.93;2.03;;;;;;;11.72;67.98;101607.88;2053560;28;20094;-78
2022/02/27 00:42:00;;;;;;;5.22;2.15;;;;;;;11.72;68.02;101609.63;2046194;28;20090;-78
2022/02/27 00:43:23;;;;;;;3.83;2.05;;;;;;;11.72;68.01;101607.88;2059332;28;20103;-79
2022/02/27 00:44:45;;;;;;;2.50;1.63;;;;;;;11.70;67.93;101612.22;2068695;28;20061;-78
2022/02/27 00:46:09;;;;;;;10.80;3.55;;;;;;;11.68;68.11;101606.03;2059420;28;20043;-78
2022/02/27 00:47:33;;;;;;;6.60;2.83;;;;;;;11.63;68.08;101612.03;2057401;28;20500;-79
2022/02/27 00:48:55;;;;;;;3.05;1.88;;;;;;;11.57;68.35;101605.75;2055671;28;20085;-78
2022/02/27 00:50:19;;;;;;;4.55;2.35;;;;;;;11.53;68.42;101606.53;2068371;28;20074;-78
2022/02/27 00:51:41;;;;;;;4.95;2.00;;;;;;;11.52;68.57;101595.91;2049416;29;20097;-78
2022/02/27 00:53:06;;;;;;;3.88;1.48;;;;;;;11.54;68.64;101602.16;2063911;28;20435;-78
2022/02/27 00:54:29;;;;;;;2.47;1.63;;;;;;;11.55;68.68;101603.94;2071278;28;20049;-78
2022/02/27 00:55:52;;;;;;;5.13;2.38;;;;;;;11.56;68.59;101598.66;2066670;28;20046;-78
2022/02/27 00:57:14;;;;;;;4.07;2.13;;;;;;;11.60;68.84;101599.66;2054645;28;20141;-78
2022/02/27 00:58:38;;;;;;;6.75;2.15;;;;;;;11.61;68.60;101596.16;2068587;28;20049;-78
2022/02/27 01:00:00;;;;;;;5.43;2.47;;;;;;;11.62;68.60;101594.41;2063042;28;20069;-78
2022/02/27 01:01:22;;;;;;;2.50;0.98;;;;;;;11.61;68.67;101598.81;2060175;28;20054;-78
2022/02/27 01:02:45;;;;;;;3.33;1.13;;;;;;;11.57;68.81;101594.28;2062744;28;20048;-78
2022/02/27 01:04:08;;;;;;;5.88;1.25;;;;;;;11.55;69.12;101596.88;2054906;28;20057;-78
2022/02/27 01:05:30;;;;;;;4.10;1.30;;;;;;;11.55;69.03;101598.66;2061235;28;20076;-78
2022/02/27 01:06:53;;;;;;;8.13;2.15;;;;;;;11.56;68.94;101603.97;2067420;28;20512;-78
2022/02/27 01:08:17;;;;;;;7.75;2.42;;;;;;;11.59;68.88;101603.16;2073540;28;20104;-78
2022/02/27 01:09:40;;;;;;;7.45;2.85;;;;;;;11.59;68.88;101598.75;2072130;28;20054;-78
2022/02/27 01:11:03;;;;;;;7.43;3.03;;;;;;;11.61;68.64;101597.91;2062479;28;20446;-78
2022/02/27 01:12:25;;;;;;;3.40;1.83;;;;;;;11.62;68.50;101599.69;2058724;28;20046;-78
2022/02/27 01:13:47;;;;;;;6.57;2.22;;;;;;;11.62;68.35;101600.56;2051694;28;20078;-78
2022/02/27 01:15:10;;;;;;;2.13;1.40;;;;;;;11.56;68.21;101601.31;2065489;28;20042;-78
2022/02/27 01:16:33;;;;;;;5.40;1.15;;;;;;;11.51;68.34;101602.94;2060461;28;20046;-78
2022/02/27 01:17:55;;;;;;;3.53;1.98;;;;;;;11.46;68.50;101601.94;2059302;28;20054;-78
2022/02/27 01:19:17;;;;;;;10.75;8.32;;;;;;;11.44;68.56;101605.41;2076382;28;20038;-78
2022/02/27 01:20:39;;;;;;;7.53;5.20;;;;;;;11.39;68.62;101609.69;2057622;28;20423;-78
2022/02/27 01:22:06;;;;;;;3.78;2.05;;;;;;;11.37;68.75;101593.78;2058637;28;20113;-78
2022/02/27 01:23:33;;;;;;;4.22;1.70;;;;;;;11.36;68.54;101599.91;2056044;28;20035;-78
2022/02/27 01:24:56;;;;;;;1.63;1.17;;;;;;;11.34;68.89;101599.00;2067283;28;20053;-78
2022/02/27 01:26:17;;;;;;;2.97;1.40;;;;;;;11.34;68.94;101604.28;2072901;28;20092;-78
2022/02/27 01:27:40;;;;;;;3.65;1.70;;;;;;;11.36;68.93;101599.00;2068900;28;20451;-77
2022/02/27 01:29:02;;;;;;;7.80;2.75;;;;;;;11.35;68.83;101592.84;2062457;28;20141;-78
2022/02/27 01:30:25;;;;;;;20.02;9.15;;;;;;;11.36;68.80;101599.91;2076395;28;20045;-78
2022/02/27 01:31:47;;;;;;;7.68;2.53;;;;;;;11.35;68.74;101597.25;2074574;28;20710;-78
2022/02/27 01:33:09;;;;;;;5.32;1.70;;;;;;;11.36;68.83;101596.38;2070912;28;20108;-77
2022/02/27 01:34:33;;;;;;;5.05;1.50;;;;;;;11.35;68.96;101599.91;2059675;28;20058;-78
2022/02/27 01:35:55;;;;;;;6.88;3.22;;;;;;;11.36;68.76;101591.97;2065215;28;20039;-78
2022/02/27 01:37:18;;;;;;;11.70;5.18;;;;;;;11.35;68.74;101595.50;2070233;28;20049;-77
2022/02/27 01:38:45;;;;;;;13.23;5.45;;;;;;;11.38;68.65;101595.56;2055060;28;20492;-78
2022/02/27 01:40:11;;;;;;;10.40;5.38;;;;;;;11.37;68.54;101592.88;2059241;28;20054;-78
2022/02/27 01:41:34;;;;;;;2.22;1.50;;;;;;;11.37;68.54;101592.88;2062220;28;20404;-78
2022/02/27 01:42:56;;;;;;;3.42;1.63;;;;;;;11.35;68.40;101584.03;2058730;28;20047;-77
2022/02/27 01:44:20;;;;;;;4.55;1.50;;;;;;;11.33;68.39;101584.00;2070315;28;20482;-77
2022/02/27 01:45:43;;;;;;;5.15;2.50;;;;;;;11.31;68.29;101585.69;2062447;28;20046;-78
2022/02/27 01:47:08;;;;;;;7.22;3.33;;;;;;;11.31;68.09;101588.31;2062360;28;20423;-78
2022/02/27 01:48:30;;;;;;;31.13;20.65;;;;;;;11.25;68.04;101587.28;2054550;28;20192;-78
2022/02/27 01:49:53;;;;;;;44.35;26.80;;;;;;;11.18;68.28;101584.47;2059870;28;20039;-78
2022/02/27 01:51:16;;;;;;;14.32;7.50;;;;;;;11.17;68.23;101581.78;2057231;28;20075;-78
2022/02/27 01:52:37;;;;;;;5.07;2.55;;;;;;;11.20;68.30;101584.53;2059709;28;20054;-78
2022/02/27 01:54:04;;;;;;;8.35;5.00;;;;;;;11.24;68.03;101582.84;2060538;28;20515;-78
2022/02/27 01:55:27;;;;;;;5.60;2.60;;;;;;;11.24;68.04;101574.91;2062599;28;20491;-78
2022/02/27 01:56:49;;;;;;;6.50;2.35;;;;;;;11.23;68.09;101579.31;2062381;28;20144;-78
2022/02/27 01:58:12;;;;;;;5.07;2.15;;;;;;;11.23;68.08;101583.69;2059483;28;20514;-78
2022/02/27 01:59:34;;;;;;;4.03;2.22;;;;;;;11.24;67.94;101581.09;2067909;28;20077;-78
2022/02/27 02:01:00;;;;;;;5.65;1.88;;;;;;;11.25;67.94;101580.25;2070308;28;20107;-77
2022/02/27 02:02:23;;;;;;;3.30;1.45;;;;;;;11.25;67.97;101579.34;2062501;28;20054;-78
2022/02/27 02:03:48;;;;;;;7.97;1.90;;;;;;;11.24;67.80;101583.75;2060741;28;20163;-78
2022/02/27 02:05:10;;;;;;;4.00;1.85;;;;;;;11.24;67.79;101585.47;2070306;28;20140;-78
2022/02/27 02:06:33;;;;;;;3.38;1.70;;;;;;;11.22;67.75;101589.84;2061218;28;20415;-77
2022/02/27 02:07:55;;;;;;;5.00;1.77;;;;;;;11.22;67.70;101587.22;2056695;28;20070;-78
2022/02/27 02:09:21;;;;;;;4.55;1.60;;;;;;;11.19;67.68;101586.28;2057097;28;20049;-78
2022/02/27 02:10:47;;;;;;;1.98;1.40;;;;;;;11.14;67.77;101582.63;2068918;28;20145;-77
2022/02/27 02:12:12;;;;;;;3.78;1.40;;;;;;;11.12;67.90;101586.06;2060983;28;20471;-77
2022/02/27 02:13:37;;;;;;;1.60;1.20;;;;;;;11.04;68.10;101587.59;2060759;28;20427;-77
2022/02/27 02:14:59;;;;;;;2.55;1.42;;;;;;;11.00;68.30;101586.63;2067537;28;20133;-78
2022/02/27 02:16:23;;;;;;;2.20;1.27;;;;;;;11.01;68.50;101582.25;2060025;28;20050;-78
2022/02/27 02:17:46;;;;;;;3.42;1.15;;;;;;;10.99;68.54;101583.94;2044302;29;20047;-78
2022/02/27 02:19:08;;;;;;;3.58;1.42;;;;;;;10.97;68.44;101583.91;2063656;28;20058;-78
2022/02/27 02:20:33;;;;;;;4.15;1.27;;;;;;;10.99;68.58;101589.22;2063004;28;20072;-77
2022/02/27 02:21:57;;;;;;;7.53;1.67;;;;;;;11.14;68.28;101589.66;2054057;28;20051;-77
2022/02/27 02:23:20;;;;;;;2.53;1.30;;;;;;;10.94;68.33;101602.31;2076671;28;20038;-77
2022/02/27 02:24:43;;;;;;;3.00;1.40;;;;;;;11.09;68.23;101593.94;2059372;28;20050;-78
2022/02/27 02:26:06;;;;;;;3.55;1.42;;;;;;;10.90;68.13;101592.50;2061959;28;20074;-77
2022/02/27 02:27:31;;;;;;;3.50;1.65;;;;;;;10.78;68.46;101589.53;2054151;28;20047;-77
2022/02/27 02:28:53;;;;;;;3.63;1.42;;;;;;;10.84;68.71;101596.72;2051652;28;20789;-77
2022/02/27 02:30:17;;;;;;;5.97;1.80;;;;;;;10.73;68.87;101597.34;2052038;28;20065;-77
2022/02/27 02:31:40;;;;;;;1.85;1.00;;;;;;;10.67;69.18;101589.25;2053267;28;20035;-78
2022/02/27 02:33:03;;;;;;;4.13;1.58;;;;;;;11.01;68.67;101592.81;2067489;28;20038;-78
2022/02/27 02:34:26;;;;;;;5.72;1.50;;;;;;;10.93;68.44;101594.34;2054183;28;20141;-78
2022/02/27 02:35:50;;;;;;;2.70;1.30;;;;;;;10.84;68.66;101591.44;2059913;28;20131;-78
2022/02/27 02:37:13;;;;;;;2.72;1.65;;;;;;;10.77;68.87;101591.28;2062097;28;20065;-78
2022/02/27 02:38:36;;;;;;;6.88;1.98;;;;;;;10.80;68.76;101598.41;2062300;28;20145;-78
2022/02/27 02:39:57;;;;;;;5.45;1.80;;;;;;;10.76;68.98;101594.75;2062840;28;20034;-78
2022/02/27 02:41:20;;;;;;;2.15;1.55;;;;;;;10.92;68.63;101598.72;2058837;28;20496;-77
2022/02/27 02:42:43;;;;;;;6.03;1.50;;;;;;;11.01;68.41;101604.28;2059350;28;20046;-77
2022/02/27 02:44:07;;;;;;;3.53;1.60;;;;;;;11.00;68.39;101601.59;2070450;28;20052;-77
2022/02/27 02:45:30;;;;;;;4.55;1.63;;;;;;;10.76;68.73;101593.91;2060013;28;20046;-77
2022/02/27 02:46:52;;;;;;;3.53;1.55;;;;;;;10.70;68.61;101598.97;2066346;28;20133;-77
2022/02/27 02:48:15;;;;;;;3.83;1.52;;;;;;;10.83;68.58;101600.25;2064310;28;20042;-78
2022/02/27 02:49:38;;;;;;;3.90;1.52;;;;;;;10.57;69.28;101588.91;2063888;28;20517;-77
2022/02/27 02:51:02;;;;;;;4.88;2.00;;;;;;;10.79;69.21;101596.59;2056287;28;20101;-77
2022/02/27 02:52:25;;;;;;;3.00;1.55;;;;;;;10.93;68.60;101600.53;2061123;28;20046;-78
2022/02/27 02:53:48;;;;;;;4.50;2.05;;;;;;;10.95;68.78;101598.84;2051692;28;20050;-77
2022/02/27 02:55:13;;;;;;;3.22;1.55;;;;;;;10.69;69.71;101599.84;2051554;28;20263;-77
2022/02/27 02:56:35;;;;;;;3.22;1.58;;;;;;;10.98;69.65;101598.00;2058205;28;20053;-77
2022/02/27 02:57:58;;;;;;;1.77;1.13;;;;;;;11.07;69.13;101603.53;2067186;28;20053;-77
2022/02/27 02:59:23;;;;;;;4.35;1.42;;;;;;;10.79;70.09;101604.53;2068722;28;20064;-77
2022/02/27 03:00:46;;;;;;;3.15;1.10;;;;;;;10.78;70.85;101603.63;2064613;28;20094;-77
2022/02/27 03:02:09;;;;;;;3.30;0.77;;;;;;;10.87;70.89;101600.38;2061915;28;20038;-77
2022/02/27 03:03:31;;;;;;;2.50;1.33;;;;;;;11.21;70.68;101599.53;2067269;28;20403;-77
2022/02/27 03:04:54;;;;;;;1.83;1.13;;;;;;;11.11;70.53;101595.72;2069926;28;20462;-77
2022/02/27 03:06:18;;;;;;;2.25;1.40;;;;;;;11.32;70.71;101595.41;2064402;28;20046;-77
2022/02/27 03:07:41;;;;;;;3.72;0.73;;;;;;;11.45;70.40;101593.97;2046430;28;20471;-77
2022/02/27 03:09:05;;;;;;;2.15;1.02;;;;;;;11.24;70.86;101596.06;2056398;28;20046;-77
2022/02/27 03:10:26;;;;;;;2.63;1.38;;;;;;;11.45;70.91;101594.88;2061980;28;20043;-77
2022/02/27 03:11:49;;;;;;;1.67;1.40;;;;;;;11.40;70.68;101600.91;2066763;28;20630;-77
2022/02/27 03:13:10;;;;;;;2.95;1.42;;;;;;;11.61;70.46;101593.50;2062876;28;20089;-78
2022/02/27 03:14:33;;;;;;;2.25;1.20;;;;;;;11.66;70.09;101596.25;2056543;28;20058;-77
2022/02/27 03:15:55;;;;;;;3.22;1.65;;;;;;;11.63;70.03;101602.34;2059379;28;20049;-78
2022/02/27 03:17:18;;;;;;;1.85;1.20;;;;;;;11.54;70.40;101602.16;2056131;28;20105;-78
2022/02/27 03:18:42;;;;;;;3.35;1.73;;;;;;;11.60;70.08;101602.28;2059495;28;20057;-78
2022/02/27 03:20:05;;;;;;;3.60;1.40;;;;;;;11.61;70.15;101603.19;2061870;28;20137;-78
2022/02/27 03:21:29;;;;;;;5.13;1.40;;;;;;;11.30;70.78;101601.50;2053647;28;20050;-77
2022/02/27 03:22:50;;;;;;;2.17;1.35;;;;;;;11.36;70.96;101606.94;2062148;28;20046;-78
2022/02/27 03:24:13;;;;;;;1.85;1.17;;;;;;;11.37;70.47;101601.69;2061518;28;20495;-78
2022/02/27 03:25:36;;;;;;;0.60;0.50;;;;;;;11.26;70.58;101600.53;2069374;28;20073;-78
2022/02/27 03:26:58;;;;;;;2.78;1.17;;;;;;;11.05;70.61;101599.97;2061950;28;20073;-78
2022/02/27 03:28:20;;;;;;;4.18;1.60;;;;;;;11.00;70.85;101597.22;2060641;28;20058;-78
2022/02/27 03:29:42;;;;;;;3.95;1.55;;;;;;;10.89;70.88;101595.13;2061872;28;20085;-79
2022/02/27 03:31:05;;;;;;;3.38;1.50;;;;;;;10.88;71.00;101598.63;2077840;28;20597;-77
2022/02/27 03:32:27;;;;;;;2.78;1.15;;;;;;;10.87;71.03;101600.38;2056261;28;20085;-78
2022/02/27 03:33:49;;;;;;;3.70;1.23;;;;;;;10.84;70.99;101602.00;2059188;28;20141;-78
2022/02/27 03:35:12;;;;;;;3.10;1.30;;;;;;;10.83;71.06;101609.03;2066791;28;20064;-78
2022/02/27 03:36:36;;;;;;;2.28;1.20;;;;;;;10.83;71.04;101601.09;2056207;28;20055;-77
2022/02/27 03:37:58;;;;;;;3.13;1.30;;;;;;;10.82;70.98;101599.34;2065222;28;20038;-78
2022/02/27 03:39:21;;;;;;;3.80;1.67;;;;;;;10.81;70.91;101594.91;2068412;28;20068;-78
2022/02/27 03:40:42;;;;;;;2.78;1.17;;;;;;;10.76;71.13;101596.53;2065098;28;20053;-78
2022/02/27 03:42:05;;;;;;;4.53;1.60;;;;;;;10.74;71.15;101598.22;2058812;28;20146;-78
2022/02/27 03:43:27;;;;;;;2.53;1.30;;;;;;;10.73;71.10;101597.34;2066592;28;20549;-77
2022/02/27 03:44:49;;;;;;;2.55;1.38;;;;;;;10.74;71.18;101598.22;2061788;28;20053;-78
2022/02/27 03:46:11;;;;;;;3.78;1.48;;;;;;;10.72;71.23;101597.28;2058351;28;20535;-78
2022/02/27 03:47:33;;;;;;;1.92;1.30;;;;;;;10.70;71.14;101596.34;2058897;28;20631;-77
2022/02/27 03:48:56;;;;;;;4.57;1.50;;;;;;;10.69;71.29;101598.09;2054130;28;20046;-78
2022/02/27 03:50:19;;;;;;;2.28;1.50;;;;;;;10.73;71.43;101599.06;2062713;28;20065;-78
2022/02/27 03:51:43;;;;;;;4.50;1.67;;;;;;;10.71;71.27;101598.13;2065678;28;20117;-78
2022/02/27 03:53:05;;;;;;;3.63;1.45;;;;;;;10.68;71.34;101592.78;2064027;28;20137;-76
2022/02/27 03:54:26;;;;;;;3.10;1.50;;;;;;;10.71;71.53;101599.03;2069525;28;20076;-77
2022/02/27 03:55:49;;;;;;;4.25;1.67;;;;;;;10.74;71.39;101600.88;2055980;28;20600;-77
2022/02/27 03:57:11;;;;;;;3.95;1.90;;;;;;;10.75;71.42;101600.03;2069129;28;20099;-77
2022/02/27 03:58:34;;;;;;;2.22;1.20;;;;;;;10.75;71.42;101594.75;2061550;28;20046;-78
2022/02/27 03:59:55;;;;;;;2.55;1.40;;;;;;;10.76;71.28;101591.25;2058574;28;20050;-77
2022/02/27 04:01:18;;;;;;;2.88;1.30;;;;;;;10.74;71.28;101596.47;2057148;28;20142;-78
2022/02/27 04:02:41;;;;;;;3.47;1.60;;;;;;;10.73;71.48;101596.44;2050923;28;20058;-77
2022/02/27 04:04:03;;;;;;;2.08;1.08;;;;;;;10.71;71.44;101593.75;2069052;28;20061;-78
2022/02/27 04:05:26;;;;;;;2.30;1.40;;;;;;;10.71;71.54;101599.03;2061661;28;20109;-77
2022/02/27 04:06:50;;;;;;;6.38;2.10;;;;;;;10.74;71.69;101599.13;2066393;28;20050;-78
2022/02/27 04:08:12;;;;;;;1.80;1.35;;;;;;;10.76;71.56;101592.13;2059494;28;20046;-78
2022/02/27 04:09:35;;;;;;;3.70;1.45;;;;;;;10.77;71.53;101593.00;2050950;28;20583;-78
2022/02/27 04:10:57;;;;;;;3.55;1.73;;;;;;;10.77;71.60;101593.00;2067200;28;20041;-78
2022/02/27 04:12:19;;;;;;;2.00;1.30;;;;;;;10.77;71.62;101593.00;2057899;28;20063;-78
2022/02/27 04:13:41;;;;;;;5.47;1.83;;;;;;;10.77;71.63;101588.63;2066406;28;20038;-78
2022/02/27 04:15:03;;;;;;;2.75;1.48;;;;;;;10.78;71.47;101597.44;2053502;28;20081;-78
2022/02/27 04:16:25;;;;;;;4.15;1.55;;;;;;;10.80;71.73;101593.13;2055486;28;20046;-78
2022/02/27 04:17:48;;;;;;;5.13;1.70;;;;;;;10.82;71.76;101598.44;2058702;28;20499;-78
2022/02/27 04:19:11;;;;;;;3.47;1.60;;;;;;;10.82;71.72;101591.44;2055686;28;20035;-78
2022/02/27 04:20:34;;;;;;;4.18;2.30;;;;;;;10.82;71.99;101591.44;2066616;28;20078;-78
2022/02/27 04:21:56;;;;;;;5.65;1.88;;;;;;;10.87;71.98;101597.72;2068633;28;20069;-78
2022/02/27 04:23:19;;;;;;;2.75;1.65;;;;;;;10.87;72.14;101599.47;2064141;28;20050;-78
2022/02/27 04:24:40;;;;;;;2.15;1.50;;;;;;;10.88;72.15;101607.44;2066999;28;20053;-77
2022/02/27 04:26:03;;;;;;;4.45;1.83;;;;;;;10.89;72.30;101603.94;2075206;28;20075;-77
2022/02/27 04:27:26;;;;;;;5.82;2.25;;;;;;;10.90;72.29;101600.44;2062019;28;20105;-78
2022/02/27 04:28:49;;;;;;;8.85;3.75;;;;;;;10.91;72.25;101598.69;2075151;28;20050;-79
2022/02/27 04:30:12;;;;;;;9.60;3.67;;;;;;;10.91;72.35;101596.03;2071922;28;20072;-78
2022/02/27 04:31:34;;;;;;;4.13;2.22;;;;;;;10.91;72.40;101599.59;2071190;28;20132;-78
2022/02/27 04:32:56;;;;;;;2.63;1.73;;;;;;;10.91;72.66;101596.94;2076112;28;20042;-78
2022/02/27 04:34:19;;;;;;;2.63;1.33;;;;;;;10.89;72.68;101598.66;2053309;28;20101;-77
2022/02/27 04:35:41;;;;;;;2.60;2.00;;;;;;;10.90;72.77;101600.44;2061248;28;20051;-78
2022/02/27 04:37:06;;;;;;;2.65;1.48;;;;;;;10.94;73.08;101602.31;2056100;28;20054;-78
2022/02/27 04:38:29;;;;;;;2.33;1.40;;;;;;;10.96;73.13;101599.72;2060365;28;20560;-78
2022/02/27 04:39:51;;;;;;;2.67;1.23;;;;;;;11.04;73.44;101604.34;2060471;28;20141;-78
2022/02/27 04:41:18;;;;;;;5.05;1.73;;;;;;;11.13;73.76;101599.31;2051216;28;20062;-78
2022/02/27 04:42:41;;;;;;;3.22;1.73;;;;;;;11.24;73.92;101602.25;2061771;28;20790;-78
2022/02/27 04:44:04;;;;;;;3.28;1.90;;;;;;;11.30;74.03;101597.09;2045525;29;20047;-77
2022/02/27 04:45:26;;;;;;;2.97;1.60;;;;;;;11.35;74.04;101602.53;2056863;28;20042;-78
2022/02/27 04:46:47;;;;;;;4.10;1.52;;;;;;;11.38;74.08;101595.56;2059707;28;20039;-78
2022/02/27 04:48:10;;;;;;;2.20;1.55;;;;;;;11.44;74.27;101586.88;2066474;28;20049;-78
2022/02/27 04:49:32;;;;;;;2.40;1.58;;;;;;;11.47;74.19;101593.16;2064058;28;20050;-77
2022/02/27 04:50:55;;;;;;;1.50;1.02;;;;;;;11.52;74.44;101594.16;2063217;28;20038;-78
2022/02/27 04:52:18;;;;;;;3.97;1.30;;;;;;;11.58;74.48;101596.06;2074305;28;20491;-78
2022/02/27 04:53:41;;;;;;;2.40;1.30;;;;;;;11.62;74.52;101589.13;2064012;28;20051;-78
2022/02/27 04:55:05;;;;;;;1.38;1.05;;;;;;;11.66;74.63;101597.16;2061524;28;20128;-78
2022/02/27 04:56:28;;;;;;;4.05;1.42;;;;;;;11.69;74.67;101591.94;2077495;28;20054;-78
2022/02/27 04:57:50;;;;;;;7.22;1.60;;;;;;;11.72;74.64;101597.31;2050469;28;20109;-78
2022/02/27 04:59:13;;;;;;;2.47;1.23;;;;;;;11.76;74.70;101595.66;2064284;28;20557;-78
2022/02/27 05:00:35;;;;;;;4.75;1.65;;;;;;;11.79;74.65;101596.63;2055421;28;20130;-78
2022/02/27 05:01:57;;;;;;;3.33;1.10;;;;;;;11.84;74.69;101605.56;2053798;28;20061;-78
2022/02/27 05:03:19;;;;;;;3.13;1.50;;;;;;;11.88;74.58;101602.13;2055884;28;20137;-78
2022/02/27 05:04:42;;;;;;;3.17;1.05;;;;;;;11.93;74.56;101613.72;2053246;28;20058;-78
2022/02/27 05:06:04;;;;;;;2.30;1.30;;;;;;;11.97;74.56;101610.28;2053437;28;20085;-78
2022/02/27 05:07:27;;;;;;;3.25;1.75;;;;;;;12.02;74.57;101601.56;2059650;28;20581;-78
2022/02/27 05:08:50;;;;;;;2.65;1.60;;;;;;;12.06;74.58;101603.44;2056073;28;20054;-78
2022/02/27 05:10:13;;;;;;;2.28;1.45;;;;;;;12.09;74.44;101614.97;2070374;28;20058;-79
2022/02/27 05:11:35;;;;;;;2.20;1.38;;;;;;;12.14;74.43;101601.84;2067683;28;20050;-78
2022/02/27 05:12:58;;;;;;;4.07;1.67;;;;;;;12.19;74.40;101610.78;2054686;28;20404;-78
2022/02/27 05:14:20;;;;;;;2.70;1.60;;;;;;;12.22;74.43;101606.44;2065901;28;20042;-78
2022/02/27 05:15:43;;;;;;;4.10;1.50;;;;;;;12.27;74.46;101606.56;2069090;28;20056;-78
2022/02/27 05:17:05;;;;;;;1.95;1.48;;;;;;;12.28;74.21;101601.28;2062230;28;20046;-79
2022/02/27 05:18:27;;;;;;;2.58;1.52;;;;;;;12.31;74.34;101598.72;2065386;28;20404;-78
2022/02/27 05:19:50;;;;;;;2.35;1.30;;;;;;;12.33;74.33;101601.41;2068378;28;20041;-78
2022/02/27 05:21:12;;;;;;;2.42;1.27;;;;;;;12.34;74.31;101600.50;2070854;28;20061;-78
2022/02/27 05:22:41;;;;;;;3.20;1.73;;;;;;;12.36;74.33;101606.75;2059878;28;20132;-78
2022/02/27 05:24:04;;;;;;;4.53;1.80;;;;;;;12.35;74.35;101607.59;2069740;28;20046;-78
2022/02/27 05:25:26;;;;;;;4.47;1.55;;;;;;;12.35;74.40;101607.59;2062871;28;20047;-79
2022/02/27 05:26:48;;;;;;;2.70;1.42;;;;;;;12.43;74.29;101603.38;2066029;28;20228;-79
2022/02/27 05:28:10;;;;;;;5.93;1.80;;;;;;;12.42;74.30;101605.97;2054372;28;20085;-78
2022/02/27 05:29:33;;;;;;;1.92;1.40;;;;;;;12.43;74.33;101606.03;2076105;28;20042;-79
2022/02/27 05:30:56;;;;;;;3.72;1.70;;;;;;;12.48;74.27;101603.47;2066503;28;20503;-79
2022/02/27 05:32:18;;;;;;;3.90;1.60;;;;;;;12.51;74.24;101599.16;2070388;28;20295;-79
2022/02/27 05:33:40;;;;;;;2.90;1.40;;;;;;;12.55;74.26;101598.34;2065328;28;20042;-79
2022/02/27 05:35:03;;;;;;;4.10;1.60;;;;;;;12.63;74.21;101606.44;2070697;28;20046;-79
2022/02/27 05:36:26;;;;;;;3.33;1.65;;;;;;;12.69;74.21;101596.88;2062036;28;20385;-79
2022/02/27 05:37:49;;;;;;;5.00;1.75;;;;;;;12.79;74.25;101595.31;2054559;28;20501;-79
2022/02/27 05:39:13;;;;;;;2.28;1.42;;;;;;;12.87;74.29;101592.78;2063790;28;20120;-79
2022/02/27 05:40:35;;;;;;;4.28;1.83;;;;;;;12.94;74.21;101589.41;2062143;28;20042;-79
2022/02/27 05:41:56;;;;;;;3.67;1.73;;;;;;;12.97;74.02;101600.06;2062162;28;20119;-79
2022/02/27 05:43:19;;;;;;;6.88;2.30;;;;;;;13.03;73.91;101594.88;2071119;28;20068;-79
2022/02/27 05:44:42;;;;;;;4.53;0.95;;;;;;;13.13;73.80;101599.50;2068215;28;20046;-78
2022/02/27 05:46:05;;;;;;;2.88;1.38;;;;;;;13.24;73.62;101597.06;2054596;28;20058;-79
2022/02/27 05:47:26;;;;;;;3.22;1.30;;;;;;;13.34;73.34;101596.34;2054085;28;20051;-78
2022/02/27 05:48:49;;;;;;;3.75;1.20;;;;;;;13.40;73.19;101593.81;2054054;28;20046;-79
2022/02/27 05:50:11;;;;;;;2.80;0.98;;;;;;;13.43;72.90;101589.47;2062633;28;20153;-79
2022/02/27 05:51:34;;;;;;;2.28;1.58;;;;;;;13.49;72.74;101594.88;2055353;28;20042;-80
2022/02/27 05:52:58;;;;;;;3.85;1.40;;;;;;;13.57;72.52;101595.91;2055871;28;20508;-79
2022/02/27 05:54:19;;;;;;;1.75;0.95;;;;;;;13.67;72.42;101596.03;2062514;28;20080;-79
2022/02/27 05:55:41;;;;;;;2.90;1.45;;;;;;;13.78;72.17;101594.47;2058008;28;20047;-79
2022/02/27 05:57:04;;;;;;;4.28;1.50;;;;;;;13.87;72.02;101589.28;2075827;28;20079;-78
2022/02/27 05:58:30;;;;;;;3.13;1.00;;;;;;;13.98;71.83;101586.81;2073068;28;20141;-78
2022/02/27 05:59:53;;;;;;;0.73;0.70;;;;;;;14.08;71.49;101592.28;2065333;28;20046;-78
2022/02/27 06:01:16;;;;;;;1.70;0.98;;;;;;;14.16;71.25;101590.63;2069678;28;20041;-79
2022/02/27 06:02:38;;;;;;;1.92;1.10;;;;;;;14.25;70.84;101596.06;2070508;28;20112;-79
2022/02/27 06:04:01;;;;;;;1.60;1.00;;;;;;;14.36;70.51;101597.13;2070311;28;20041;-79
2022/02/27 06:05:24;;;;;;;2.25;1.10;;;;;;;14.47;70.26;101593.72;2070182;28;20061;-79
2022/02/27 06:06:45;;;;;;;2.10;1.20;;;;;;;14.57;70.15;101595.66;2069666;28;20073;-79
2022/02/27 06:08:09;;;;;;;3.28;1.17;;;;;;;14.68;69.54;101597.56;2077921;28;20048;-80
2022/02/27 06:09:32;;;;;;;3.42;1.30;;;;;;;14.81;69.20;101595.94;2072889;28;20045;-78
2022/02/27 06:10:54;;;;;;;3.05;1.20;;;;;;;14.96;68.96;101605.88;2064345;28;20052;-78
2022/02/27 06:12:17;;;;;;;4.13;1.40;;;;;;;15.10;68.63;101598.91;2054327;28;20443;-77
2022/02/27 06:13:39;;;;;;;2.45;1.05;;;;;;;15.23;68.29;101594.63;2059363;28;20136;-77
2022/02/27 06:15:01;;;;;;;2.67;1.17;;;;;;;15.36;67.85;101591.22;2054119;28;20094;-77
2022/02/27 06:16:23;;;;;;;3.97;1.92;;;;;;;15.45;67.23;101597.47;2062340;28;20053;-77
2022/02/27 06:17:46;;;;;;;5.25;1.63;;;;;;;15.53;67.11;101593.16;2070060;28;20053;-77
2022/02/27 06:19:08;;;;;;;5.30;1.75;;;;;;;15.65;66.79;101597.69;2062067;28;20432;-77
2022/02/27 06:20:29;;;;;;;7.00;2.53;;;;;;;15.78;66.15;101602.22;2061900;28;20038;-77
2022/02/27 06:21:52;;;;;;;6.05;2.13;;;;;;;15.86;65.45;101604.97;2061825;28;20050;-77
2022/02/27 06:23:16;;;;;;;5.65;2.78;;;;;;;15.95;64.92;101610.34;2062071;28;20046;-77
2022/02/27 06:24:37;;;;;;;4.85;2.35;;;;;;;16.05;64.56;101604.22;2054307;28;20082;-77